Bobcaygeon, Canada
Current Conditions -  °F | °C
As of 2:00 PM on Friday 21 Nov 2014 (Local Time) from CYPQ Reporting Station
Broken Clouds Broken Clouds  
Wind Chill: 14°   Ceiling: 5500
Heat Index: 25°   Visibility: 9mi
Dew Point: 10°   Wind: 12mph
Humidity: 54%   Direction: 260°W
Pressure: 30.33"   Gusts: 18mph
Location:  44.53°N, 78.55°W
Report Text: CYPQ 211900Z AUTO 26010G16KT 210V280 9SM BKN055 M04/M12 A3033 RMK SLP284
Loading
Personal Weather Stations






























Interactive Weather Map New forecast layout! Learn more

10-Day Weather Forecast

Advertisements
Track Severe Weather on mobile